createdAt,value
2023-05-17T00:00:21.781Z,6.03
2023-05-17T00:02:50.406Z,6.05
2023-05-17T00:05:19.012Z,14.35
2023-05-17T00:07:48.642Z,8.52
2023-05-17T00:10:17.246Z,8.82
2023-05-17T00:12:47.396Z,10.80
2023-05-17T00:15:15.903Z,5.55
2023-05-17T00:17:44.689Z,5.13
2023-05-17T00:20:13.770Z,6.78
2023-05-17T00:22:43.481Z,8.25
2023-05-17T00:25:11.996Z,6.55
2023-05-17T00:27:40.643Z,6.85
2023-05-17T00:30:11.062Z,7.05
2023-05-17T00:32:39.685Z,9.60
2023-05-17T00:35:08.775Z,7.88
2023-05-17T00:37:37.362Z,11.18
2023-05-17T00:40:06.408Z,7.07
2023-05-17T00:42:34.944Z,9.98
2023-05-17T00:45:03.491Z,8.77
2023-05-17T00:47:33.571Z,6.68
2023-05-17T00:50:02.257Z,8.02
2023-05-17T00:52:30.832Z,6.68
2023-05-17T00:54:59.506Z,8.88
2023-05-17T00:57:29.367Z,8.85
2023-05-17T00:59:57.953Z,8.23
2023-05-17T01:02:26.569Z,10.93
2023-05-17T01:04:56.469Z,8.55
2023-05-17T01:07:25.081Z,9.60
2023-05-17T01:09:53.708Z,10.52
2023-05-17T01:12:26.651Z,11.00
2023-05-17T01:15:10.555Z,9.07
2023-05-17T01:17:42.907Z,8.73
2023-05-17T01:20:18.695Z,7.53
2023-05-17T01:22:53.177Z,10.13
2023-05-17T01:25:36.977Z,8.35
2023-05-17T01:28:07.151Z,9.30
2023-05-17T01:30:37.099Z,11.38
2023-05-17T01:33:06.492Z,8.88
2023-05-17T01:35:35.108Z,12.90
2023-05-17T01:38:03.629Z,12.18
2023-05-17T01:40:34.024Z,10.73
2023-05-17T01:43:09.371Z,10.73
2023-05-17T01:45:42.239Z,12.40
2023-05-17T01:48:16.578Z,9.05
2023-05-17T01:50:46.358Z,8.07
2023-05-17T01:53:20.385Z,8.20
2023-05-17T01:55:51.960Z,10.93
2023-05-17T01:58:23.036Z,11.90
2023-05-17T02:00:55.548Z,13.98
2023-05-17T02:03:24.337Z,9.43
2023-05-17T02:05:52.815Z,9.18
2023-05-17T02:08:21.934Z,11.40
2023-05-17T02:10:50.564Z,12.57
2023-05-17T02:13:19.084Z,14.18
2023-05-17T02:15:47.585Z,12.55
2023-05-17T02:18:17.833Z,12.35
2023-05-17T02:20:46.556Z,12.13
2023-05-17T02:23:15.059Z,13.50
2023-05-17T02:25:43.545Z,12.07
2023-05-17T02:28:12.296Z,10.68
2023-05-17T02:30:41.632Z,11.93
2023-05-17T02:33:10.518Z,13.45
2023-05-17T02:35:40.544Z,11.75
2023-05-17T02:38:09.099Z,12.85
2023-05-17T02:40:37.581Z,14.52
2023-05-17T02:43:06.469Z,11.73
2023-05-17T02:45:34.988Z,18.33
2023-05-17T02:48:03.521Z,14.10
2023-05-17T02:50:32.083Z,14.70
2023-05-17T02:53:02.262Z,12.80
2023-05-17T02:55:30.979Z,15.35
2023-05-17T02:57:59.726Z,11.07
2023-05-17T03:00:28.467Z,17.55
2023-05-17T03:02:57.097Z,12.50
2023-05-17T03:05:25.680Z,14.15
2023-05-17T03:07:54.266Z,10.55
2023-05-17T03:10:24.279Z,14.10
2023-05-17T03:12:52.850Z,13.15
2023-05-17T03:15:21.543Z,14.23
2023-05-17T03:17:50.095Z,15.32
2023-05-17T03:20:19.073Z,13.90
2023-05-17T03:22:47.551Z,15.82
2023-05-17T03:25:16.206Z,14.65
2023-05-17T03:27:46.162Z,11.40
2023-05-17T03:30:14.969Z,14.48
2023-05-17T03:32:43.899Z,13.75
2023-05-17T03:35:12.538Z,17.90
2023-05-17T03:37:41.074Z,15.57
2023-05-17T03:40:10.150Z,12.15
2023-05-17T03:42:38.724Z,19.08
2023-05-17T03:45:09.479Z,14.07
2023-05-17T03:47:38.030Z,12.20
2023-05-17T03:50:07.188Z,13.30
2023-05-17T03:52:35.761Z,16.23
2023-05-17T03:55:04.314Z,17.58
2023-05-17T03:57:33.085Z,20.00
2023-05-17T04:00:01.736Z,12.23
2023-05-17T04:02:31.639Z,13.30
2023-05-17T04:05:00.741Z,15.32
2023-05-17T04:07:29.683Z,15.48
2023-05-17T04:10:00.081Z,18.65
2023-05-17T04:12:28.633Z,18.88
2023-05-17T04:14:57.224Z,21.15
2023-05-17T04:17:25.727Z,20.90
2023-05-17T04:19:55.950Z,18.67
2023-05-17T04:22:24.577Z,20.52
2023-05-17T04:24:53.174Z,18.27
2023-05-17T04:27:22.690Z,19.40
2023-05-17T04:29:51.419Z,14.07
2023-05-17T04:32:19.954Z,16.83
2023-05-17T04:34:48.484Z,18.60
2023-05-17T04:37:18.434Z,19.55
2023-05-17T04:39:46.881Z,15.10
2023-05-17T04:42:15.440Z,19.95
2023-05-17T04:44:43.937Z,17.55
2023-05-17T04:47:12.552Z,19.08
2023-05-17T04:49:41.793Z,20.77
2023-05-17T04:52:10.482Z,14.18
2023-05-17T04:54:40.712Z,19.67
2023-05-17T04:57:09.211Z,22.92
2023-05-17T04:59:37.798Z,18.85
2023-05-17T05:02:07.004Z,25.83
2023-05-17T05:04:35.765Z,21.95
2023-05-17T05:07:04.538Z,30.98
2023-05-17T05:09:33.055Z,27.33
2023-05-17T05:12:03.015Z,25.52
2023-05-17T05:14:31.716Z,27.65
2023-05-17T05:17:00.248Z,27.65
2023-05-17T05:19:28.805Z,25.30
2023-05-17T05:21:57.458Z,21.27
2023-05-17T05:24:26.102Z,21.10
2023-05-17T05:26:54.761Z,17.52
2023-05-17T05:29:24.817Z,20.13
2023-05-17T05:31:53.390Z,14.77
2023-05-17T05:34:21.910Z,15.85
2023-05-17T05:36:50.618Z,13.77
2023-05-17T05:39:19.247Z,14.70
2023-05-17T05:41:47.857Z,15.20
2023-05-17T05:44:16.348Z,14.80
2023-05-17T05:46:46.355Z,18.52
2023-05-17T05:49:14.944Z,16.75
2023-05-17T05:51:43.663Z,13.43
2023-05-17T05:54:12.258Z,13.77
2023-05-17T05:56:40.789Z,12.70
2023-05-17T05:59:09.327Z,14.20
2023-05-17T06:01:38.184Z,12.68
2023-05-17T06:04:08.228Z,13.57
2023-05-17T06:06:37.324Z,14.90
2023-05-17T06:09:07.180Z,10.25
2023-05-17T06:11:35.901Z,13.82
2023-05-17T06:14:04.444Z,11.57
2023-05-17T06:16:33.072Z,11.60
2023-05-17T06:19:01.796Z,10.32
2023-05-17T06:21:32.390Z,13.50
2023-05-17T06:24:02.819Z,12.02
2023-05-17T06:26:32.703Z,8.10
2023-05-17T06:29:01.334Z,14.20
2023-05-17T06:31:29.933Z,12.85
2023-05-17T06:33:58.668Z,16.08
2023-05-17T06:36:27.298Z,9.13
2023-05-17T06:38:57.596Z,7.47
2023-05-17T06:41:26.097Z,10.05
2023-05-17T06:43:54.655Z,9.63
2023-05-17T06:46:23.178Z,12.60
2023-05-17T06:48:51.751Z,10.48
2023-05-17T06:51:20.344Z,13.02
2023-05-17T06:53:48.866Z,10.13
2023-05-17T06:56:18.739Z,8.68
2023-05-17T06:58:47.490Z,10.55
2023-05-17T07:01:16.963Z,10.90
2023-05-17T07:03:45.707Z,9.75
2023-05-17T07:06:14.394Z,11.48
2023-05-17T07:08:43.045Z,13.00
2023-05-17T07:11:11.879Z,6.78
2023-05-17T07:13:41.827Z,8.80
2023-05-17T07:16:10.482Z,7.28
2023-05-17T07:18:39.152Z,11.07
2023-05-17T07:21:07.829Z,8.43
2023-05-17T07:23:36.589Z,10.90
2023-05-17T07:26:05.145Z,9.82
2023-05-17T07:28:33.681Z,9.63
2023-05-17T07:31:03.621Z,9.80
2023-05-17T07:33:32.220Z,11.18
2023-05-17T07:36:00.834Z,9.25
2023-05-17T07:38:29.849Z,10.85
2023-05-17T07:40:58.782Z,5.97
2023-05-17T07:43:27.396Z,15.57
2023-05-17T07:45:56.174Z,10.38
2023-05-17T07:48:26.778Z,7.57
2023-05-17T07:50:56.104Z,11.00
2023-05-17T07:53:24.700Z,9.45
2023-05-17T07:55:53.563Z,7.05
2023-05-17T07:58:22.248Z,10.90
2023-05-17T08:00:50.986Z,9.57
2023-05-17T08:03:19.644Z,9.07
2023-05-17T08:05:49.669Z,7.75
2023-05-17T08:08:18.207Z,9.88
2023-05-17T08:10:46.719Z,11.68
2023-05-17T08:13:15.388Z,10.82
2023-05-17T08:15:43.911Z,7.40
2023-05-17T08:18:12.813Z,10.43
2023-05-17T08:20:41.418Z,9.85
2023-05-17T08:23:11.313Z,10.63
2023-05-17T08:25:39.875Z,8.88
2023-05-17T08:28:08.572Z,10.85
2023-05-17T08:30:37.145Z,12.05
2023-05-17T08:33:05.960Z,7.55
2023-05-17T08:35:37.652Z,8.10
2023-05-17T08:38:06.151Z,10.85
2023-05-17T08:40:36.260Z,9.55
2023-05-17T08:43:05.144Z,9.13
2023-05-17T08:45:34.019Z,6.45
2023-05-17T08:48:03.459Z,6.95
2023-05-17T08:50:33.004Z,7.38
2023-05-17T08:53:02.049Z,7.68
2023-05-17T08:55:33.228Z,11.02
2023-05-17T08:58:04.177Z,6.60
2023-05-17T09:00:35.079Z,7.82
2023-05-17T09:03:04.004Z,12.45
2023-05-17T09:05:32.848Z,9.23
2023-05-17T09:08:01.735Z,10.80
2023-05-17T09:10:31.710Z,10.80
2023-05-17T09:13:00.432Z,8.73
2023-05-17T09:15:31.081Z,10.43
2023-05-17T09:17:59.957Z,11.82
2023-05-17T09:20:35.510Z,7.72
2023-05-17T09:23:04.371Z,9.20
2023-05-17T09:25:33.422Z,7.85
2023-05-17T09:28:07.690Z,7.35
2023-05-17T09:30:39.572Z,11.18
2023-05-17T09:33:08.317Z,9.02
2023-05-17T09:35:37.236Z,7.68
2023-05-17T09:38:07.861Z,9.10
2023-05-17T09:40:39.461Z,9.75
2023-05-17T09:43:08.055Z,9.20
2023-05-17T09:45:38.020Z,8.13
2023-05-17T09:48:15.930Z,5.47
2023-05-17T09:50:50.877Z,4.72
2023-05-17T09:53:26.363Z,10.63
2023-05-17T09:55:55.564Z,10.20
2023-05-17T09:58:24.392Z,9.10
2023-05-17T10:00:55.652Z,8.10
2023-05-17T10:03:24.310Z,5.78
2023-05-17T10:05:54.426Z,8.20
2023-05-17T10:08:26.007Z,7.22
2023-05-17T10:10:55.016Z,5.80
2023-05-17T10:13:25.864Z,7.28
2023-05-17T10:15:56.109Z,6.88
2023-05-17T10:18:25.298Z,8.07
2023-05-17T10:20:54.037Z,7.28
2023-05-17T10:23:23.246Z,6.15
2023-05-17T10:25:51.950Z,6.45
2023-05-17T10:28:22.238Z,8.18
2023-05-17T10:30:52.056Z,6.47
2023-05-17T10:33:23.018Z,10.10
2023-05-17T10:35:52.180Z,7.70
2023-05-17T10:38:23.977Z,7.68
2023-05-17T10:40:55.480Z,6.43
2023-05-17T10:43:24.983Z,8.15
2023-05-17T10:45:53.526Z,8.60
2023-05-17T10:48:23.516Z,6.20
2023-05-17T10:51:01.085Z,5.55
2023-05-17T10:53:30.231Z,6.80
2023-05-17T10:55:58.706Z,5.78
2023-05-17T10:59:57.704Z,10.20
2023-05-17T11:02:26.711Z,6.15
2023-05-17T11:04:56.578Z,4.22
2023-05-17T11:07:29.657Z,6.40
2023-05-17T11:10:05.986Z,4.90
2023-05-17T11:12:38.493Z,6.00
2023-05-17T11:15:11.044Z,5.13
2023-05-17T11:17:50.928Z,6.78
2023-05-17T11:20:33.842Z,7.28
2023-05-17T11:23:04.417Z,4.65
2023-05-17T11:25:35.683Z,7.60
2023-05-17T11:28:09.159Z,8.10
2023-05-17T11:30:42.634Z,5.80
2023-05-17T11:33:21.327Z,6.55
2023-05-17T11:35:58.857Z,6.13
2023-05-17T11:38:32.582Z,6.43
2023-05-17T11:41:26.617Z,7.00
2023-05-17T11:43:55.944Z,7.25
2023-05-17T11:46:26.172Z,8.20
2023-05-17T11:48:55.070Z,7.25
2023-05-17T11:51:25.166Z,6.05
2023-05-17T11:53:56.198Z,4.85
2023-05-17T11:56:35.689Z,4.82
2023-05-17T11:59:10.916Z,6.80
2023-05-17T12:01:47.570Z,4.38
2023-05-17T12:04:16.410Z,8.43
2023-05-17T12:06:46.546Z,5.75
2023-05-17T12:09:17.879Z,7.18
2023-05-17T12:11:47.961Z,9.40
2023-05-17T12:14:17.837Z,5.05
2023-05-17T12:16:49.617Z,7.43
2023-05-17T12:19:21.402Z,9.05
2023-05-17T12:21:50.102Z,4.40
2023-05-17T12:24:18.675Z,6.45
2023-05-17T12:26:48.332Z,5.88
2023-05-17T12:29:18.341Z,5.40
2023-05-17T12:31:50.245Z,5.68
2023-05-17T12:34:19.375Z,4.78
2023-05-17T12:36:48.439Z,4.72
2023-05-17T12:39:18.245Z,7.65
2023-05-17T12:41:46.928Z,6.60
2023-05-17T12:44:16.520Z,5.88
2023-05-17T12:46:45.750Z,8.52
2023-05-17T12:49:15.695Z,7.15
2023-05-17T12:51:44.855Z,8.50
2023-05-17T12:54:13.875Z,7.28
2023-05-17T12:56:43.994Z,5.63
2023-05-17T12:59:14.018Z,8.15
2023-05-17T13:01:44.523Z,5.22
2023-05-17T13:04:14.051Z,7.20
2023-05-17T13:06:48.371Z,3.78
2023-05-17T13:09:18.446Z,7.05
2023-05-17T13:11:52.387Z,6.82
2023-05-17T13:14:35.377Z,5.63
2023-05-17T13:17:04.204Z,6.75
2023-05-17T13:19:33.130Z,4.55
2023-05-17T13:22:03.453Z,3.88
2023-05-17T13:24:32.784Z,6.57
2023-05-17T13:27:01.432Z,6.85
2023-05-17T13:29:38.687Z,5.78
2023-05-17T13:32:08.422Z,4.30
2023-05-17T13:34:37.099Z,4.72
2023-05-17T13:37:09.580Z,8.57
2023-05-17T13:39:40.615Z,5.55
2023-05-17T13:42:09.776Z,3.22
2023-05-17T13:44:39.112Z,7.07
2023-05-17T13:47:08.150Z,7.05
2023-05-17T13:49:37.439Z,4.72
2023-05-17T13:52:09.054Z,3.65
2023-05-17T13:54:38.189Z,4.82
2023-05-17T13:57:07.759Z,5.20
2023-05-17T13:59:36.712Z,5.85
2023-05-17T14:02:05.656Z,5.20
2023-05-17T14:04:35.083Z,5.55
2023-05-17T14:07:04.091Z,5.68
2023-05-17T14:09:35.534Z,6.32
2023-05-17T14:12:04.325Z,3.30
2023-05-17T14:14:33.133Z,4.43
2023-05-17T14:17:02.648Z,5.43
2023-05-17T14:19:31.273Z,4.47
2023-05-17T14:21:59.892Z,7.97
2023-05-17T14:24:28.374Z,5.03
2023-05-17T14:26:58.767Z,9.95
2023-05-17T14:29:27.412Z,7.07
2023-05-17T14:31:55.953Z,6.50
2023-05-17T14:34:24.634Z,6.45
2023-05-17T14:36:53.614Z,8.55
2023-05-17T14:39:22.155Z,5.78
2023-05-17T14:41:50.789Z,5.63
2023-05-17T14:44:20.666Z,7.35
2023-05-17T14:46:49.127Z,10.45
2023-05-17T14:49:17.737Z,5.57
2023-05-17T14:51:46.544Z,5.00
2023-05-17T14:54:15.086Z,4.57
2023-05-17T14:56:43.583Z,7.53
2023-05-17T14:59:12.714Z,4.47
2023-05-17T15:01:42.628Z,7.30
2023-05-17T15:04:11.449Z,6.78
2023-05-17T15:06:40.030Z,6.95
2023-05-17T15:09:09.837Z,5.78
2023-05-17T15:11:38.298Z,6.40
2023-05-17T15:14:07.080Z,5.38
2023-05-17T15:16:36.091Z,7.85
2023-05-17T15:19:06.633Z,6.03
2023-05-17T15:21:35.363Z,5.63
2023-05-17T15:24:04.033Z,6.82
2023-05-17T15:26:32.552Z,8.82
2023-05-17T15:29:01.115Z,6.80
2023-05-17T15:31:29.826Z,7.18
2023-05-17T15:33:59.240Z,6.05
2023-05-17T15:36:29.305Z,7.43
2023-05-17T15:38:57.832Z,7.90
2023-05-17T15:41:29.804Z,5.93
2023-05-17T15:43:58.592Z,7.88
2023-05-17T15:46:27.197Z,6.05
2023-05-17T15:48:57.080Z,6.40
2023-05-17T15:51:25.681Z,6.25
2023-05-17T15:53:55.672Z,7.38
2023-05-17T15:56:24.282Z,7.72
2023-05-17T15:58:53.163Z,7.25
2023-05-17T16:01:21.691Z,5.35
2023-05-17T16:03:50.525Z,8.90
2023-05-17T16:06:19.715Z,9.18
2023-05-17T16:08:48.414Z,7.90
2023-05-17T16:11:18.260Z,7.90
2023-05-17T16:13:46.951Z,7.22
2023-05-17T16:16:15.522Z,5.60
2023-05-17T16:18:44.181Z,7.05
2023-05-17T16:21:13.701Z,6.20
2023-05-17T16:23:42.345Z,7.07
2023-05-17T16:26:10.880Z,5.75
2023-05-17T16:28:40.980Z,7.10
2023-05-17T16:31:09.592Z,7.05
2023-05-17T16:33:38.364Z,6.95
2023-05-17T16:36:07.338Z,10.32
2023-05-17T16:38:35.915Z,8.32
2023-05-17T16:41:04.475Z,6.70
2023-05-17T16:43:33.456Z,5.90
2023-05-17T16:46:03.514Z,7.00
2023-05-17T16:48:32.207Z,7.15
2023-05-17T16:51:00.733Z,5.20
2023-05-17T16:53:29.380Z,6.85
2023-05-17T16:55:57.986Z,9.38
2023-05-17T16:58:27.129Z,6.50
2023-05-17T17:00:55.780Z,7.93
2023-05-17T17:03:25.994Z,8.30
2023-05-17T17:05:54.701Z,8.00
2023-05-17T17:08:23.220Z,6.80
2023-05-17T17:10:51.728Z,9.75
2023-05-17T17:13:20.624Z,10.90
2023-05-17T17:15:51.065Z,8.77
2023-05-17T17:18:19.852Z,7.65
2023-05-17T17:20:49.716Z,7.68
2023-05-17T17:23:18.212Z,8.82
2023-05-17T17:25:46.849Z,6.32
2023-05-17T17:28:15.385Z,6.78
2023-05-17T17:30:43.888Z,9.65
2023-05-17T17:33:12.499Z,6.65
2023-05-17T17:35:41.181Z,7.47
2023-05-17T17:38:14.436Z,8.60
2023-05-17T17:40:43.113Z,7.10
2023-05-17T17:43:11.774Z,10.60
2023-05-17T17:45:40.448Z,7.05
2023-05-17T17:48:09.222Z,5.60
2023-05-17T17:50:37.879Z,7.63
2023-05-17T17:53:06.634Z,7.95
2023-05-17T17:55:36.718Z,9.23
2023-05-17T17:58:05.553Z,8.90
2023-05-17T18:00:34.397Z,8.93
2023-05-17T18:03:03.202Z,11.32
2023-05-17T18:05:32.841Z,7.75
2023-05-17T18:08:01.524Z,6.65
2023-05-17T18:10:31.402Z,7.80
2023-05-17T18:13:01.712Z,7.60
2023-05-17T18:15:30.280Z,9.82
2023-05-17T18:17:58.854Z,6.97
2023-05-17T18:20:27.576Z,10.20
2023-05-17T18:22:56.222Z,8.95
2023-05-17T18:25:24.865Z,7.80
2023-05-17T18:27:53.337Z,8.50
2023-05-17T18:30:25.383Z,8.40
2023-05-17T18:32:53.955Z,11.82
2023-05-17T18:35:22.578Z,8.98
2023-05-17T18:37:51.173Z,5.60
2023-05-17T18:40:20.136Z,6.40
2023-05-17T18:42:48.651Z,6.85
2023-05-17T18:45:17.324Z,5.93
2023-05-17T18:47:47.326Z,9.43
2023-05-17T18:50:15.933Z,6.97
2023-05-17T18:52:44.693Z,6.53
2023-05-17T18:55:13.700Z,10.20
2023-05-17T18:57:43.054Z,7.10
2023-05-17T19:00:13.701Z,7.60
2023-05-17T19:02:42.302Z,6.65
2023-05-17T19:05:12.581Z,9.93
2023-05-17T19:07:41.168Z,7.72
2023-05-17T19:10:10.316Z,7.80
2023-05-17T19:12:38.985Z,7.38
2023-05-17T19:15:09.860Z,8.35
2023-05-17T19:17:38.510Z,9.18
2023-05-17T19:20:07.480Z,10.02
2023-05-17T19:22:37.595Z,5.93
2023-05-17T19:25:06.682Z,8.05
2023-05-17T19:27:35.158Z,7.57
2023-05-17T19:30:03.839Z,9.23
2023-05-17T19:32:33.166Z,7.75
2023-05-17T19:35:02.355Z,8.18
2023-05-17T19:37:30.856Z,5.93
2023-05-17T19:40:01.338Z,9.60
2023-05-17T19:42:29.944Z,6.18
2023-05-17T19:44:58.577Z,5.95
2023-05-17T19:47:27.118Z,8.63
2023-05-17T19:49:56.052Z,11.07
2023-05-17T19:52:24.625Z,7.88
2023-05-17T19:54:53.223Z,10.77
2023-05-17T19:57:23.469Z,9.73
2023-05-17T19:59:52.365Z,7.72
2023-05-17T20:02:21.326Z,9.57
2023-05-17T20:04:50.129Z,13.63
2023-05-17T20:07:18.641Z,7.00
2023-05-17T20:09:47.153Z,8.73
2023-05-17T20:12:15.852Z,6.50
2023-05-17T20:14:45.740Z,7.80
2023-05-17T20:17:14.294Z,7.60
2023-05-17T20:19:43.127Z,4.70
2023-05-17T20:22:11.882Z,7.18
2023-05-17T20:24:40.681Z,5.00
2023-05-17T20:27:09.217Z,8.88
2023-05-17T20:29:38.288Z,6.00
2023-05-17T20:32:08.693Z,7.45
2023-05-17T20:34:37.414Z,6.03
2023-05-17T20:37:06.260Z,7.40
2023-05-17T20:39:34.732Z,6.03
2023-05-17T20:42:03.519Z,6.85
2023-05-17T20:44:33.353Z,7.90
2023-05-17T20:47:02.005Z,9.30
2023-05-17T20:49:32.030Z,10.57
2023-05-17T20:52:03.518Z,6.90
2023-05-17T20:54:32.270Z,6.55
2023-05-17T20:57:00.850Z,11.18
2023-05-17T20:59:29.983Z,8.07
2023-05-17T21:01:58.903Z,6.85
2023-05-17T21:04:30.141Z,9.23
2023-05-17T21:07:00.619Z,8.30
2023-05-17T21:09:29.442Z,10.68
2023-05-17T21:11:58.136Z,8.00
2023-05-17T21:14:26.895Z,9.63
2023-05-17T21:16:56.215Z,5.07
2023-05-17T21:19:25.265Z,6.88
2023-05-17T21:21:54.204Z,6.35
2023-05-17T21:24:24.394Z,4.70
2023-05-17T21:26:55.495Z,7.82
2023-05-17T21:29:24.125Z,5.95
2023-05-17T21:31:52.746Z,8.70
2023-05-17T21:34:21.333Z,4.57
2023-05-17T21:36:56.521Z,8.02
2023-05-17T21:39:27.151Z,7.20
2023-05-17T21:41:55.656Z,6.13
2023-05-17T21:44:24.810Z,7.60
2023-05-17T21:46:53.709Z,6.72
2023-05-17T21:49:22.369Z,6.05
2023-05-17T21:51:50.979Z,8.15
2023-05-17T21:54:19.744Z,5.68
2023-05-17T21:56:49.818Z,6.00
2023-05-17T21:59:18.597Z,4.55
2023-05-17T22:01:47.328Z,4.18
2023-05-17T22:04:16.052Z,9.15
2023-05-17T22:06:44.591Z,5.82
2023-05-17T22:09:13.134Z,5.03
2023-05-17T22:11:41.640Z,5.57
2023-05-17T22:14:11.874Z,7.22
2023-05-17T22:16:40.576Z,8.00
2023-05-17T22:19:09.122Z,9.02
2023-05-17T22:21:37.710Z,8.18
2023-05-17T22:24:06.929Z,6.28
2023-05-17T22:26:35.547Z,5.88
2023-05-17T22:29:04.021Z,6.93
2023-05-17T22:31:37.819Z,6.55
2023-05-17T22:34:06.709Z,6.47
2023-05-17T22:36:35.481Z,8.88
2023-05-17T22:39:05.323Z,7.43
2023-05-17T22:41:33.971Z,10.52
2023-05-17T22:44:02.488Z,7.40
2023-05-17T22:46:32.060Z,8.90
2023-05-17T22:49:01.985Z,8.85
2023-05-17T22:51:35.101Z,9.88
2023-05-17T22:54:04.062Z,6.55
2023-05-17T22:56:32.569Z,10.43
2023-05-17T22:59:01.100Z,9.45
2023-05-17T23:01:29.677Z,8.25
2023-05-17T23:03:58.665Z,7.15
2023-05-17T23:06:32.179Z,7.97
2023-05-17T23:09:02.669Z,7.90
2023-05-17T23:11:31.170Z,9.75
2023-05-17T23:14:00.843Z,8.23
2023-05-17T23:16:29.409Z,6.97
2023-05-17T23:18:58.228Z,8.25
2023-05-17T23:21:28.251Z,7.63
2023-05-17T23:23:57.013Z,8.68
2023-05-17T23:26:25.817Z,7.32
2023-05-17T23:28:54.331Z,5.80
2023-05-17T23:31:22.991Z,5.72
2023-05-17T23:33:51.721Z,8.00
2023-05-17T23:36:21.700Z,6.47
2023-05-17T23:38:51.552Z,6.85
2023-05-17T23:41:23.853Z,12.20
2023-05-17T23:43:52.754Z,7.40
2023-05-17T23:46:22.232Z,8.38
2023-05-17T23:48:51.229Z,7.75
2023-05-17T23:51:20.818Z,6.85
2023-05-17T23:53:49.832Z,5.68
2023-05-17T23:56:19.943Z,7.15
2023-05-17T23:58:48.588Z,8.88
